MROCMSSS

Guest
Details From MROC - San Jose Juan Santamaria Intl
To MSSS - Ilopango Intl
Flight Number -
Tags Routegen Generated
Created
Modified
Stats Distance 367 nm / 680 km
Max Altitude 4,100 ft / 1,250 m
Waypoints 10
Social Downloads 0
Likes 0
Share VATSIM

Download

Looking for another format? Having issues loading an existing format? Contact us
Advertisement - Login to hide

Notes

Departing runway 24 MROC. Arriving runway 15 MSSS.

Route

MROC +09.96_-084.29 +09.96_-084.35 +09.98_-084.40 +10.02_-084.45 +10.98_-085.67 +11.94_-086.90 +13.59_-089.04 +13.63_-089.08 MSSS

ID Type Via Altitude Latitude Longitude Leg Dist Tot Dist Heading (true) Name
O MROC APT - 0 ft / 0 m 9.98900˚ -84.22186˚ - 0 nm - -
+09.96_-084.29 LATLON - 1,040 ft / 317 m 9.96296˚ -84.29041˚ 4 nm 4 nm 249° / 249° -
+09.96_-084.35 LATLON - 4,100 ft / 1,250 m 9.96186˚ -84.34918˚ 3 nm 7 nm 269° / 269° -
+09.98_-084.40 LATLON - 4,100 ft / 1,250 m 9.98062˚ -84.40479˚ 3 nm 11 nm 289° / 289° -
+10.02_-084.45 LATLON - 4,100 ft / 1,250 m 10.01699˚ -84.45053˚ 3 nm 14 nm 309° / 309° -
+10.98_-085.67 LATLON - 4,100 ft / 1,250 m 10.98283˚ -85.66979˚ 92 nm 107 nm 309° / 309° -
+11.94_-086.90 LATLON - 4,100 ft / 1,250 m 11.94406˚ -86.89954˚ 92 nm 199 nm 309° / 308° -
+13.59_-089.04 LATLON - 2,720 ft / 829 m 13.58563˚ -89.03914˚ 159 nm 359 nm 308° / 308° -
+13.63_-089.08 LATLON - 1,040 ft / 317 m 13.62561˚ -89.08223˚ 3 nm 362 nm 314° / 314° -
O MSSS APT - 0 ft / 0 m 13.69047˚ -89.11526˚ 4 nm 367 nm 334° / 334° -

Altitude Profile

Advertisement - Login to hide

Weather


0- 5 10 15 20 25 30 35+ Temperature / ° C

Clouds and Precipitation
Forecast for 2017-12-11 12:00 UTC. Updated 9 minutes ago

Ground ~20,000 ft ~40,000 ft Winds

MROC

Details ICAO MROC (SJO)
Name San Jose Juan Santamaria Intl
Region Costa Rica
Timezone America/Costa_Rica (UTC-6.0)
Stats Elevation 3,021 ft / 921 m (AMSL)
Location 9.993927° -84.208884°
Runways 1
Magnetic Variation 1.717° W

METAR

MROC 110700Z 08008KT 040V120 9999 -RA FEW025 BKN120 18/14 A3007 NOSIG

Decode

TAF

Not found

Departure Runways

ID Width Length Bearing (true) Bearing (mag) Surface Threshold Offset Overrun Length
07 151 ft / 46 m 9,994 ft / 3,046 m 68.91° 70.63° Asphalt 0 ft / 0 m 200 ft / 61 m
25 151 ft / 46 m 9,994 ft / 3,046 m 248.92° 250.64° Asphalt 1,969 ft / 600 m 200 ft / 61 m

MSSS

Details ICAO MSSS
Name ILOPANGO INTL
Region El Salvador
Timezone America/El_Salvador (UTC-6.0)
Stats Elevation 2,020 ft / 616 m (AMSL)
Location 13.698802° -89.119849°
Runways 1
Magnetic Variation 0.451° E

METAR

MSSS 110550Z 36006KT CAVOK 17/09 Q1021 A3017

Decode

TAF

Not found

Destination Runways

ID Width Length Bearing (true) Bearing (mag) Surface Threshold Offset Overrun Length
15 148 ft / 45 m 7,350 ft / 2,240 m 153.66° 153.21° Asphalt 0 ft / 0 m 0 ft / 0 m
33 148 ft / 45 m 7,350 ft / 2,240 m 333.66° 333.21° Asphalt 0 ft / 0 m 0 ft / 0 m